createdAt,value
2024-03-16T00:00:15.347Z,41.42
2024-03-16T00:02:44.108Z,39.30
2024-03-16T00:05:13.461Z,41.72
2024-03-16T00:07:42.682Z,38.22
2024-03-16T00:10:11.691Z,38.25
2024-03-16T00:12:42.088Z,39.15
2024-03-16T00:15:11.703Z,38.17
2024-03-16T00:17:41.187Z,41.10
2024-03-16T00:20:12.096Z,39.70
2024-03-16T00:22:41.627Z,41.85
2024-03-16T00:25:10.576Z,40.40
2024-03-16T00:27:40.971Z,41.72
2024-03-16T00:30:11.605Z,39.30
2024-03-16T00:32:41.178Z,39.45
2024-03-16T00:35:10.396Z,41.53
2024-03-16T00:37:39.269Z,37.05
2024-03-16T00:40:09.749Z,38.60
2024-03-16T00:42:38.592Z,40.70
2024-03-16T00:45:08.593Z,38.72
2024-03-16T00:47:38.523Z,39.83
2024-03-16T00:50:08.040Z,38.45
2024-03-16T00:52:36.536Z,41.25
2024-03-16T00:55:06.230Z,38.47
2024-03-16T00:57:35.241Z,38.85
2024-03-16T01:00:04.629Z,37.08
2024-03-16T01:02:33.533Z,40.47
2024-03-16T01:05:02.240Z,40.43
2024-03-16T01:07:31.207Z,39.60
2024-03-16T01:10:00.124Z,39.13
2024-03-16T01:12:29.523Z,41.33
2024-03-16T01:14:59.072Z,42.03
2024-03-16T01:17:27.820Z,39.58
2024-03-16T01:19:57.266Z,40.55
2024-03-16T01:22:26.116Z,36.97
2024-03-16T01:24:55.031Z,41.53
2024-03-16T01:27:24.033Z,38.75
2024-03-16T01:29:52.656Z,40.47
2024-03-16T01:32:21.419Z,35.17
2024-03-16T01:34:51.337Z,38.10
2024-03-16T01:37:20.374Z,39.25
2024-03-16T01:39:51.390Z,37.47
2024-03-16T01:42:20.134Z,36.60
2024-03-16T01:45:08.127Z,41.10
2024-03-16T01:47:36.881Z,39.93
2024-03-16T01:50:06.113Z,38.17
2024-03-16T01:52:35.278Z,38.22
2024-03-16T01:55:05.626Z,38.95
2024-03-16T01:57:34.445Z,37.13
2024-03-16T02:00:03.621Z,39.20
2024-03-16T02:02:33.289Z,36.30
2024-03-16T02:05:03.026Z,36.50
2024-03-16T02:07:34.590Z,38.85
2024-03-16T02:10:06.906Z,39.63
2024-03-16T02:12:36.155Z,38.78
2024-03-16T02:15:05.328Z,35.95
2024-03-16T02:17:34.406Z,40.25
2024-03-16T02:20:04.935Z,38.35
2024-03-16T02:22:33.669Z,35.43
2024-03-16T02:25:02.650Z,36.20
2024-03-16T02:27:31.819Z,40.22
2024-03-16T02:30:01.290Z,40.08
2024-03-16T02:32:30.218Z,39.05
2024-03-16T02:34:59.266Z,40.03
2024-03-16T02:37:27.868Z,36.55
2024-03-16T02:39:57.043Z,38.08
2024-03-16T02:42:26.966Z,41.28
2024-03-16T02:44:58.804Z,38.33
2024-03-16T02:47:28.632Z,41.83
2024-03-16T02:49:58.390Z,38.00
2024-03-16T02:52:27.047Z,37.75
2024-03-16T02:54:56.449Z,37.97
2024-03-16T02:57:25.564Z,39.20
2024-03-16T02:59:54.155Z,36.65
2024-03-16T03:02:24.742Z,36.70
2024-03-16T03:04:55.776Z,36.83
2024-03-16T03:07:24.731Z,38.83
2024-03-16T03:09:53.977Z,39.33
2024-03-16T03:12:24.405Z,37.80
2024-03-16T03:14:53.682Z,37.13
2024-03-16T03:17:26.869Z,38.20
2024-03-16T03:19:56.225Z,40.40
2024-03-16T03:22:25.065Z,37.57
2024-03-16T03:24:54.158Z,36.47
2024-03-16T03:27:23.408Z,40.97
2024-03-16T03:29:56.051Z,38.40
2024-03-16T03:32:24.781Z,36.17
2024-03-16T03:34:54.079Z,39.08
2024-03-16T03:37:24.302Z,36.97
2024-03-16T03:39:54.365Z,35.63
2024-03-16T03:42:26.831Z,40.85
2024-03-16T03:45:12.794Z,35.33
2024-03-16T03:47:51.842Z,35.90
2024-03-16T03:50:28.316Z,40.80
2024-03-16T03:53:00.881Z,41.80
2024-03-16T03:55:29.926Z,38.38
2024-03-16T03:57:58.688Z,38.90
2024-03-16T04:00:27.593Z,38.08
2024-03-16T04:02:59.472Z,42.35
2024-03-16T04:05:28.607Z,40.37
2024-03-16T04:07:57.367Z,38.53
2024-03-16T04:10:27.676Z,41.13
2024-03-16T04:12:56.364Z,38.30
2024-03-16T04:15:25.567Z,42.20
2024-03-16T04:17:56.565Z,38.37
2024-03-16T04:20:26.002Z,42.80
2024-03-16T04:22:55.124Z,40.63
2024-03-16T04:25:23.889Z,36.77
2024-03-16T04:27:53.764Z,42.88
2024-03-16T04:30:23.018Z,39.83
2024-03-16T04:32:53.607Z,39.20
2024-03-16T04:35:22.817Z,37.13
2024-03-16T04:37:52.129Z,36.92
2024-03-16T04:40:21.027Z,41.23
2024-03-16T04:42:49.984Z,42.63
2024-03-16T04:45:19.022Z,41.17
2024-03-16T04:47:48.455Z,41.37
2024-03-16T04:50:16.931Z,38.45
2024-03-16T04:52:47.093Z,38.70
2024-03-16T04:55:18.890Z,36.97
2024-03-16T04:57:48.498Z,42.38
2024-03-16T05:00:17.664Z,41.42
2024-03-16T05:02:46.639Z,40.55
2024-03-16T05:05:16.609Z,42.92
2024-03-16T05:07:45.971Z,40.72
2024-03-16T05:10:15.290Z,41.80
2024-03-16T05:12:45.731Z,43.55
2024-03-16T05:15:15.021Z,44.03
2024-03-16T05:17:43.624Z,41.65
2024-03-16T05:20:13.366Z,42.28
2024-03-16T05:22:42.878Z,41.78
2024-03-16T05:25:13.628Z,40.15
2024-03-16T05:27:43.179Z,44.22
2024-03-16T05:30:13.928Z,42.43
2024-03-16T05:32:43.364Z,44.78
2024-03-16T05:35:12.224Z,43.35
2024-03-16T05:37:41.666Z,46.60
2024-03-16T05:40:12.902Z,42.63
2024-03-16T05:42:41.966Z,41.15
2024-03-16T05:45:10.816Z,42.42
2024-03-16T05:47:40.267Z,39.90
2024-03-16T05:50:09.827Z,40.55
2024-03-16T05:52:39.545Z,45.40
2024-03-16T05:55:09.271Z,42.50
2024-03-16T05:57:38.604Z,41.75
2024-03-16T06:00:15.344Z,43.70
2024-03-16T06:02:44.287Z,42.63
2024-03-16T06:05:12.862Z,46.30
2024-03-16T06:07:44.178Z,46.30
2024-03-16T06:10:13.413Z,41.97
2024-03-16T06:12:42.401Z,46.08
2024-03-16T06:15:12.011Z,42.97
2024-03-16T06:17:40.687Z,42.22
2024-03-16T06:20:11.836Z,44.40
2024-03-16T06:22:42.324Z,45.70
2024-03-16T06:25:13.112Z,45.10
2024-03-16T06:27:50.680Z,41.30
2024-03-16T06:30:20.903Z,40.63
2024-03-16T06:33:07.386Z,41.83
2024-03-16T06:35:37.730Z,42.30
2024-03-16T06:38:06.264Z,46.45
2024-03-16T06:40:35.869Z,45.10
2024-03-16T06:43:04.703Z,42.83
2024-03-16T06:45:33.600Z,43.83
2024-03-16T06:48:02.531Z,47.45
2024-03-16T06:50:33.309Z,41.88
2024-03-16T06:53:02.449Z,45.72
2024-03-16T06:55:31.282Z,45.00
2024-03-16T06:58:01.014Z,43.92
2024-03-16T07:00:31.519Z,43.03
2024-03-16T07:03:01.113Z,49.97
2024-03-16T07:05:30.195Z,44.60
2024-03-16T07:07:59.146Z,44.35
2024-03-16T07:10:28.196Z,45.85
2024-03-16T07:12:57.414Z,48.35
2024-03-16T07:15:26.608Z,43.92
2024-03-16T07:17:55.446Z,44.05
2024-03-16T07:20:24.804Z,43.88
2024-03-16T07:22:55.427Z,46.72
2024-03-16T07:25:24.271Z,42.97
2024-03-16T07:27:53.111Z,43.45
2024-03-16T07:30:21.903Z,48.35
2024-03-16T07:32:51.258Z,45.72
2024-03-16T07:35:20.073Z,46.30
2024-03-16T07:37:48.784Z,47.90
2024-03-16T07:40:17.664Z,43.38
2024-03-16T07:42:46.662Z,46.60
2024-03-16T07:45:15.882Z,48.53
2024-03-16T07:47:45.030Z,47.75
2024-03-16T07:50:14.496Z,44.13
2024-03-16T07:52:43.548Z,47.65
2024-03-16T07:55:13.373Z,47.05
2024-03-16T07:57:42.890Z,42.55
2024-03-16T08:00:14.919Z,44.80
2024-03-16T08:02:44.094Z,44.20
2024-03-16T08:05:13.688Z,45.10
2024-03-16T08:07:42.942Z,44.13
2024-03-16T08:10:12.706Z,45.10
2024-03-16T08:12:42.078Z,44.60
2024-03-16T08:15:12.042Z,42.42
2024-03-16T08:17:40.904Z,47.58
2024-03-16T08:20:16.291Z,43.95
2024-03-16T08:22:49.636Z,46.42
2024-03-16T08:25:18.947Z,42.30
2024-03-16T08:27:48.453Z,44.05
2024-03-16T08:30:17.252Z,44.65
2024-03-16T08:32:46.504Z,42.03
2024-03-16T08:35:15.808Z,46.35
2024-03-16T08:37:45.978Z,44.50
2024-03-16T08:40:16.517Z,46.17
2024-03-16T08:42:45.437Z,48.10
2024-03-16T08:45:14.474Z,43.40
2024-03-16T08:47:43.653Z,44.88
2024-03-16T08:50:12.577Z,44.67
2024-03-16T08:52:41.479Z,49.85
2024-03-16T08:55:14.532Z,45.30
2024-03-16T08:57:43.837Z,43.00
2024-03-16T09:00:15.285Z,45.67
2024-03-16T09:02:44.755Z,44.08
2024-03-16T09:05:14.007Z,42.63
2024-03-16T09:07:44.204Z,40.97
2024-03-16T09:10:13.239Z,43.55
2024-03-16T09:12:45.466Z,41.47
2024-03-16T09:15:14.160Z,43.88
2024-03-16T09:17:44.276Z,43.85
2024-03-16T09:20:13.264Z,41.45
2024-03-16T09:22:43.265Z,52.90
2024-03-16T09:25:13.710Z,41.95
2024-03-16T09:27:42.617Z,44.47
2024-03-16T09:30:13.939Z,39.60
2024-03-16T09:32:42.935Z,45.45
2024-03-16T09:35:13.161Z,40.92
2024-03-16T09:37:43.469Z,44.58
2024-03-16T09:40:15.119Z,50.63
2024-03-16T09:42:44.454Z,54.03
